createdAt,value
2019-01-29T00:00:58.547Z,2.76
2019-01-29T00:01:58.596Z,2.80
2019-01-29T00:02:58.645Z,2.56
2019-01-29T00:03:58.698Z,2.55
2019-01-29T00:04:58.745Z,2.56
2019-01-29T00:05:58.795Z,2.55
2019-01-29T00:06:58.845Z,2.58
2019-01-29T00:07:58.894Z,2.50
2019-01-29T00:08:58.946Z,2.44
2019-01-29T00:09:58.996Z,2.40
2019-01-29T00:10:59.042Z,2.43
2019-01-29T00:11:59.093Z,2.48
2019-01-29T00:12:59.142Z,2.66
2019-01-29T00:13:59.194Z,2.62
2019-01-29T00:14:59.245Z,2.53
2019-01-29T00:15:59.291Z,2.48
2019-01-29T00:16:59.341Z,2.36
2019-01-29T00:17:59.391Z,2.37
2019-01-29T00:18:59.439Z,2.38
2019-01-29T00:19:59.490Z,2.48
2019-01-29T00:20:59.538Z,2.53
2019-01-29T00:21:59.588Z,2.53
2019-01-29T00:22:59.637Z,2.51
2019-01-29T00:23:59.690Z,2.51
2019-01-29T00:24:59.738Z,2.51
2019-01-29T00:25:59.788Z,2.41
2019-01-29T00:26:59.854Z,2.45
2019-01-29T00:27:59.887Z,2.33
2019-01-29T00:28:59.938Z,2.37
2019-01-29T00:29:59.985Z,2.32
2019-01-29T00:31:00.092Z,2.37
2019-01-29T00:32:00.085Z,2.44
2019-01-29T00:33:00.135Z,2.45
2019-01-29T00:34:00.184Z,2.50
2019-01-29T00:35:00.233Z,2.40
2019-01-29T00:36:00.282Z,2.37
2019-01-29T00:37:00.331Z,2.25
2019-01-29T00:38:00.383Z,2.29
2019-01-29T00:39:00.431Z,2.27
2019-01-29T00:40:00.480Z,2.33
2019-01-29T00:41:00.531Z,2.27
2019-01-29T00:42:00.582Z,2.37
2019-01-29T00:43:00.628Z,2.33
2019-01-29T00:44:00.679Z,2.33
2019-01-29T00:45:00.729Z,2.38
2019-01-29T00:46:00.778Z,2.45
2019-01-29T00:47:00.828Z,2.36
2019-01-29T00:48:00.877Z,2.33
2019-01-29T00:49:00.925Z,2.26
2019-01-29T00:50:00.975Z,2.25
2019-01-29T00:51:01.025Z,2.33
2019-01-29T00:52:01.074Z,2.37
2019-01-29T00:53:01.124Z,2.30
2019-01-29T00:54:01.174Z,2.23
2019-01-29T00:55:01.221Z,2.33
2019-01-29T00:56:01.271Z,2.27
2019-01-29T00:57:01.320Z,2.38
2019-01-29T00:58:01.378Z,2.38
2019-01-29T00:59:01.419Z,2.33
2019-01-29T01:00:01.469Z,2.40
2019-01-29T01:01:01.520Z,2.30
2019-01-29T01:02:01.569Z,2.15
2019-01-29T01:03:01.618Z,2.22
2019-01-29T01:04:01.666Z,2.26
2019-01-29T01:05:01.716Z,2.38
2019-01-29T01:06:01.767Z,2.37
2019-01-29T01:07:01.819Z,2.37
2019-01-29T01:08:01.867Z,2.29
2019-01-29T01:09:01.916Z,2.19
2019-01-29T01:10:01.967Z,2.19
2019-01-29T01:11:02.013Z,2.11
2019-01-29T01:12:02.062Z,2.00
2019-01-29T01:13:02.114Z,1.88
2019-01-29T01:14:02.164Z,1.83
2019-01-29T01:15:02.209Z,1.90
2019-01-29T01:16:02.260Z,1.82
2019-01-29T01:17:02.309Z,1.88
2019-01-29T01:18:02.359Z,1.83
2019-01-29T01:19:02.408Z,1.85
2019-01-29T01:20:02.456Z,1.77
2019-01-29T01:21:02.507Z,1.79
2019-01-29T01:22:02.555Z,1.82
2019-01-29T01:23:02.605Z,1.85
2019-01-29T01:24:02.654Z,1.85
2019-01-29T01:25:02.705Z,1.81
2019-01-29T01:26:02.752Z,1.65
2019-01-29T01:27:02.840Z,1.67
2019-01-29T01:28:02.850Z,1.74
2019-01-29T01:29:02.901Z,1.67
2019-01-29T01:30:02.958Z,1.67
2019-01-29T01:31:02.996Z,1.65
2019-01-29T01:32:03.047Z,1.67
2019-01-29T01:33:03.097Z,1.65
2019-01-29T01:34:03.146Z,1.68
2019-01-29T01:35:03.195Z,1.71
2019-01-29T01:36:03.244Z,1.67
2019-01-29T01:37:03.292Z,1.85
2019-01-29T01:38:03.343Z,1.81
2019-01-29T01:39:03.389Z,1.86
2019-01-29T01:40:03.438Z,1.68
2019-01-29T01:41:03.489Z,1.57
2019-01-29T01:42:03.536Z,1.67
2019-01-29T01:43:03.586Z,1.71
2019-01-29T01:44:03.634Z,1.81
2019-01-29T01:45:03.684Z,1.74
2019-01-29T01:46:03.736Z,1.71
2019-01-29T01:47:03.781Z,1.56
2019-01-29T01:48:03.830Z,1.53
2019-01-29T01:49:03.880Z,1.49
2019-01-29T01:50:03.929Z,1.49
2019-01-29T01:51:03.976Z,1.56
2019-01-29T01:52:04.026Z,1.54
2019-01-29T01:53:04.075Z,1.52
2019-01-29T01:54:04.124Z,1.50
2019-01-29T01:55:04.172Z,1.46
2019-01-29T01:56:04.220Z,1.38
2019-01-29T01:57:04.271Z,1.42
2019-01-29T01:58:04.318Z,1.39
2019-01-29T01:59:04.371Z,1.26
2019-01-29T02:00:04.420Z,1.46
2019-01-29T02:01:04.464Z,1.25
2019-01-29T02:02:04.514Z,1.29
2019-01-29T02:03:04.562Z,1.29
2019-01-29T02:04:04.612Z,1.21
2019-01-29T02:05:04.660Z,1.26
2019-01-29T02:06:04.710Z,1.26
2019-01-29T02:07:04.757Z,1.13
2019-01-29T02:08:04.807Z,1.14
2019-01-29T02:09:04.859Z,1.21
2019-01-29T02:10:04.904Z,1.17
2019-01-29T02:11:04.952Z,1.10
2019-01-29T02:12:05.002Z,1.16
2019-01-29T02:13:05.050Z,1.16
2019-01-29T02:14:05.100Z,1.26
2019-01-29T02:15:05.148Z,1.34
2019-01-29T02:16:05.197Z,1.32
2019-01-29T02:17:05.247Z,1.42
2019-01-29T02:18:05.297Z,1.50
2019-01-29T02:19:05.349Z,1.53
2019-01-29T02:20:05.395Z,1.43
2019-01-29T02:21:05.442Z,1.38
2019-01-29T02:22:05.490Z,1.53
2019-01-29T02:23:08.074Z,1.65
2019-01-29T02:24:05.587Z,1.50
2019-01-29T02:25:05.637Z,1.39
2019-01-29T02:26:05.686Z,1.29
2019-01-29T02:27:05.733Z,1.32
2019-01-29T02:28:05.783Z,1.14
2019-01-29T02:29:05.831Z,1.20
2019-01-29T02:30:05.881Z,1.16
2019-01-29T02:31:05.935Z,1.16
2019-01-29T02:32:05.977Z,1.20
2019-01-29T02:33:06.027Z,1.24
2019-01-29T02:34:06.075Z,1.32
2019-01-29T02:35:06.123Z,1.28
2019-01-29T02:36:06.175Z,1.24
2019-01-29T02:37:06.221Z,1.17
2019-01-29T02:38:06.273Z,1.13
2019-01-29T02:39:06.318Z,1.08
2019-01-29T02:40:06.369Z,1.04
2019-01-29T02:41:06.415Z,1.04
2019-01-29T02:42:06.464Z,1.16
2019-01-29T02:43:06.515Z,1.10
2019-01-29T02:44:06.562Z,1.07
2019-01-29T02:45:06.612Z,1.07
2019-01-29T02:46:06.659Z,1.08
2019-01-29T02:47:06.706Z,1.07
2019-01-29T02:48:06.757Z,1.17
2019-01-29T02:49:06.806Z,0.99
2019-01-29T02:50:06.854Z,1.00
2019-01-29T02:51:06.901Z,1.14
2019-01-29T02:52:06.950Z,1.14
2019-01-29T02:53:06.999Z,1.17
2019-01-29T02:54:07.051Z,1.13
2019-01-29T02:55:07.095Z,1.21
2019-01-29T02:56:07.150Z,1.24
2019-01-29T02:57:07.193Z,1.53
2019-01-29T02:58:07.246Z,1.44
2019-01-29T02:59:07.315Z,1.44
2019-01-29T03:00:07.339Z,1.28
2019-01-29T03:01:07.389Z,1.20
2019-01-29T03:02:07.437Z,1.10
2019-01-29T03:03:07.491Z,1.16
2019-01-29T03:04:07.896Z,1.13
2019-01-29T03:05:07.584Z,1.07
2019-01-29T03:06:07.633Z,1.16
2019-01-29T03:07:07.681Z,0.96
2019-01-29T03:08:07.731Z,1.00
2019-01-29T03:09:07.779Z,0.98
2019-01-29T03:10:07.828Z,0.95
2019-01-29T03:11:07.876Z,0.98
2019-01-29T03:12:07.924Z,0.98
2019-01-29T03:13:07.972Z,0.95
2019-01-29T03:14:08.022Z,0.89
2019-01-29T03:15:08.070Z,0.82
2019-01-29T03:16:08.118Z,0.82
2019-01-29T03:17:08.168Z,0.75
2019-01-29T03:18:08.218Z,0.77
2019-01-29T03:19:08.264Z,0.86
2019-01-29T03:20:08.314Z,0.77
2019-01-29T03:21:08.374Z,0.71
2019-01-29T03:22:08.411Z,0.77
2019-01-29T03:23:08.460Z,0.75
2019-01-29T03:24:08.508Z,0.78
2019-01-29T03:25:08.559Z,0.71
2019-01-29T03:26:08.608Z,0.80
2019-01-29T03:27:08.654Z,0.74
2019-01-29T03:28:08.706Z,0.90
2019-01-29T03:29:08.752Z,0.88
2019-01-29T03:30:08.803Z,0.78
2019-01-29T03:31:08.852Z,0.88
2019-01-29T03:32:08.900Z,0.89
2019-01-29T03:33:08.949Z,1.02
2019-01-29T03:34:08.997Z,1.00
2019-01-29T03:35:09.045Z,1.08
2019-01-29T03:36:09.095Z,1.18
2019-01-29T03:37:09.145Z,1.00
2019-01-29T03:38:09.202Z,0.96
2019-01-29T03:39:09.239Z,0.98
2019-01-29T03:40:09.287Z,0.99
2019-01-29T03:41:09.337Z,0.88
2019-01-29T03:42:09.388Z,0.89
2019-01-29T03:43:09.434Z,0.84
2019-01-29T03:44:09.483Z,0.82
2019-01-29T03:45:09.532Z,0.86
2019-01-29T03:46:09.591Z,0.78
2019-01-29T03:47:09.628Z,0.92
2019-01-29T03:48:09.677Z,0.72
2019-01-29T03:49:09.727Z,0.77
2019-01-29T03:50:09.780Z,0.81
2019-01-29T03:51:09.823Z,0.86
2019-01-29T03:52:09.872Z,0.77
2019-01-29T03:53:09.923Z,0.81
2019-01-29T03:54:09.971Z,0.77
2019-01-29T03:55:10.016Z,0.93
2019-01-29T03:56:10.066Z,0.93
2019-01-29T03:57:10.114Z,0.92
2019-01-29T03:58:10.164Z,0.82
2019-01-29T03:59:10.210Z,0.88
2019-01-29T04:00:10.260Z,0.84
2019-01-29T04:01:10.308Z,0.86
2019-01-29T04:02:10.358Z,0.77
2019-01-29T04:03:10.404Z,0.84
2019-01-29T04:04:10.454Z,0.89
2019-01-29T04:05:10.503Z,0.86
2019-01-29T04:06:10.551Z,0.82
2019-01-29T04:07:10.605Z,0.84
2019-01-29T04:08:10.658Z,0.95
2019-01-29T04:09:10.697Z,0.88
2019-01-29T04:10:10.747Z,0.90
2019-01-29T04:11:10.794Z,0.95
2019-01-29T04:12:10.842Z,0.89
2019-01-29T04:13:10.894Z,0.86
2019-01-29T04:14:10.945Z,0.84
2019-01-29T04:15:10.989Z,0.89
2019-01-29T04:16:11.038Z,0.84
2019-01-29T04:17:11.092Z,0.90
2019-01-29T04:18:11.135Z,0.86
2019-01-29T04:19:11.184Z,0.88
2019-01-29T04:20:11.234Z,0.93
2019-01-29T04:21:11.280Z,0.95
2019-01-29T04:22:11.330Z,0.99
2019-01-29T04:23:11.379Z,1.00
2019-01-29T04:24:11.428Z,0.99
2019-01-29T04:25:11.476Z,0.90
2019-01-29T04:26:11.524Z,0.93
2019-01-29T04:27:11.575Z,0.93
2019-01-29T04:28:11.622Z,0.99
2019-01-29T04:29:11.670Z,0.98
2019-01-29T04:30:11.720Z,0.96
2019-01-29T04:31:11.768Z,1.11
2019-01-29T04:32:11.815Z,1.14
2019-01-29T04:33:11.866Z,1.13
2019-01-29T04:34:11.914Z,1.20
2019-01-29T04:35:11.964Z,1.24
2019-01-29T04:36:12.012Z,1.17
2019-01-29T04:37:12.062Z,1.20
2019-01-29T04:38:12.114Z,1.21
2019-01-29T04:39:12.159Z,1.26
2019-01-29T04:40:12.207Z,1.10
2019-01-29T04:41:12.257Z,1.08
2019-01-29T04:42:12.304Z,1.16
2019-01-29T04:43:13.221Z,1.11
2019-01-29T04:44:12.403Z,1.11
2019-01-29T04:45:13.282Z,1.06
2019-01-29T04:46:12.501Z,1.18
2019-01-29T04:47:12.549Z,1.17
2019-01-29T04:48:12.599Z,1.17
2019-01-29T04:49:12.969Z,1.08
2019-01-29T04:50:12.701Z,1.17
2019-01-29T04:51:12.746Z,1.06
2019-01-29T04:52:12.794Z,1.18
2019-01-29T04:53:12.844Z,1.11
2019-01-29T04:54:12.894Z,1.16
2019-01-29T04:55:12.940Z,1.18
2019-01-29T04:56:12.990Z,1.13
2019-01-29T04:57:13.040Z,1.14
2019-01-29T04:58:13.089Z,1.14
2019-01-29T04:59:13.137Z,1.13
2019-01-29T05:00:13.211Z,1.13
2019-01-29T05:01:13.249Z,1.10
2019-01-29T05:02:13.285Z,1.24
2019-01-29T05:03:13.333Z,1.25
2019-01-29T05:04:13.383Z,1.25
2019-01-29T05:05:13.432Z,1.26
2019-01-29T05:06:13.482Z,1.20
2019-01-29T05:07:13.530Z,1.13
2019-01-29T05:08:13.581Z,1.24
2019-01-29T05:09:13.629Z,1.31
2019-01-29T05:10:13.678Z,1.28
2019-01-29T05:11:13.726Z,1.39
2019-01-29T05:12:13.792Z,1.39
2019-01-29T05:13:13.827Z,1.46
2019-01-29T05:14:13.898Z,1.56
2019-01-29T05:15:14.278Z,1.54
2019-01-29T05:16:14.298Z,1.39
2019-01-29T05:17:14.406Z,1.47
2019-01-29T05:18:14.087Z,1.32
2019-01-29T05:19:14.129Z,1.39
2019-01-29T05:20:14.169Z,1.47
2019-01-29T05:21:14.255Z,1.46
2019-01-29T05:22:14.351Z,1.54
2019-01-29T05:23:14.359Z,1.54
2019-01-29T05:24:14.381Z,1.49
2019-01-29T05:25:14.552Z,1.54
2019-01-29T05:26:14.497Z,1.49
2019-01-29T05:27:14.548Z,1.56
2019-01-29T05:28:14.561Z,1.52
2019-01-29T05:29:14.744Z,1.60
2019-01-29T05:30:14.663Z,1.65
2019-01-29T05:31:14.725Z,1.65
2019-01-29T05:32:14.769Z,1.61
2019-01-29T05:33:14.840Z,1.57
2019-01-29T05:34:14.897Z,1.54
2019-01-29T05:35:14.938Z,1.53
2019-01-29T05:36:14.974Z,1.54
2019-01-29T05:37:15.003Z,1.47
2019-01-29T05:38:15.057Z,1.52
2019-01-29T05:39:15.101Z,1.49
2019-01-29T05:40:15.173Z,1.49
2019-01-29T05:41:15.201Z,1.60
2019-01-29T05:42:15.256Z,1.61
2019-01-29T05:43:15.327Z,1.63
2019-01-29T05:44:15.347Z,1.64
2019-01-29T05:45:15.398Z,1.72
2019-01-29T05:46:15.459Z,1.68
2019-01-29T05:47:15.495Z,1.71
2019-01-29T05:48:15.545Z,1.72
2019-01-29T05:49:15.596Z,1.68
2019-01-29T05:50:15.645Z,1.63
2019-01-29T05:51:16.025Z,1.63
2019-01-29T05:52:15.743Z,1.65
2019-01-29T05:53:15.810Z,1.67
2019-01-29T05:54:16.687Z,1.74
2019-01-29T05:55:15.889Z,1.74
2019-01-29T05:56:15.938Z,1.65
2019-01-29T05:57:15.987Z,1.75
2019-01-29T05:58:16.039Z,1.71
2019-01-29T05:59:16.087Z,1.64
2019-01-29T06:00:16.137Z,1.68
2019-01-29T06:01:16.186Z,1.68
2019-01-29T06:02:16.235Z,1.79
2019-01-29T06:03:16.283Z,1.88
2019-01-29T06:04:16.334Z,1.88
2019-01-29T06:05:16.384Z,1.93
2019-01-29T06:06:16.432Z,1.81
2019-01-29T06:07:16.483Z,1.60
2019-01-29T06:08:16.551Z,1.68
2019-01-29T06:09:16.583Z,1.56
2019-01-29T06:10:16.683Z,1.65
2019-01-29T06:11:16.688Z,1.67
2019-01-29T06:12:16.728Z,1.65
2019-01-29T06:13:16.780Z,1.72
2019-01-29T06:14:16.872Z,1.74
2019-01-29T06:15:16.876Z,1.65
2019-01-29T06:16:16.937Z,1.60
2019-01-29T06:17:16.974Z,1.63
2019-01-29T06:18:17.023Z,1.67
2019-01-29T06:19:17.072Z,1.67
2019-01-29T06:20:18.509Z,1.63
2019-01-29T06:21:17.172Z,1.60
2019-01-29T06:22:17.220Z,1.68
2019-01-29T06:23:17.271Z,1.81
2019-01-29T06:24:25.590Z,1.74
2019-01-29T06:25:17.369Z,1.82
2019-01-29T06:26:17.418Z,1.81
2019-01-29T06:27:17.475Z,1.92
2019-01-29T06:28:17.516Z,1.68
2019-01-29T06:29:17.928Z,1.75
2019-01-29T06:30:17.648Z,1.81
2019-01-29T06:31:17.663Z,1.79
2019-01-29T06:32:17.714Z,1.86
2019-01-29T06:33:17.762Z,1.86
2019-01-29T06:34:17.811Z,1.75
2019-01-29T06:35:17.859Z,1.77
2019-01-29T06:36:17.909Z,1.79
2019-01-29T06:37:17.959Z,1.79
2019-01-29T06:38:18.048Z,1.81
2019-01-29T06:39:18.059Z,1.70
2019-01-29T06:40:18.107Z,1.79
2019-01-29T06:41:18.467Z,1.82
2019-01-29T06:42:18.207Z,1.92
2019-01-29T06:43:18.253Z,2.02
2019-01-29T06:44:18.301Z,1.89
2019-01-29T06:45:18.351Z,1.86
2019-01-29T06:46:18.402Z,1.93
2019-01-29T06:47:18.450Z,1.98
2019-01-29T06:48:18.500Z,1.83
2019-01-29T06:49:18.550Z,1.79
2019-01-29T06:50:18.599Z,1.92
2019-01-29T06:51:18.646Z,1.98
2019-01-29T06:52:18.697Z,1.93
2019-01-29T06:53:18.744Z,1.95
2019-01-29T06:54:18.796Z,1.86
2019-01-29T06:55:18.853Z,1.82
2019-01-29T06:56:18.919Z,1.90
2019-01-29T06:57:18.943Z,1.92
2019-01-29T06:58:18.993Z,1.90
2019-01-29T06:59:19.039Z,2.11
2019-01-29T07:00:19.091Z,2.32
2019-01-29T07:01:19.140Z,2.14
2019-01-29T07:02:19.189Z,2.22
2019-01-29T07:03:19.236Z,2.12
2019-01-29T07:04:19.287Z,2.19
2019-01-29T07:05:19.335Z,2.18
2019-01-29T07:06:19.388Z,1.98
2019-01-29T07:07:19.434Z,2.02
2019-01-29T07:08:19.483Z,2.00
2019-01-29T07:09:19.533Z,1.82
2019-01-29T07:10:19.581Z,1.88
2019-01-29T07:11:19.630Z,1.83
2019-01-29T07:12:19.681Z,1.98
2019-01-29T07:13:19.730Z,2.11
2019-01-29T07:14:19.778Z,2.20
2019-01-29T07:15:19.828Z,2.14
2019-01-29T07:16:19.880Z,1.85
2019-01-29T07:17:19.926Z,1.82
2019-01-29T07:18:19.976Z,1.88
2019-01-29T07:19:20.024Z,1.81
2019-01-29T07:20:20.077Z,1.89
2019-01-29T07:21:20.121Z,1.83
2019-01-29T07:22:20.171Z,1.93
2019-01-29T07:23:20.220Z,1.81
2019-01-29T07:24:20.268Z,1.82
2019-01-29T07:25:20.318Z,1.82
2019-01-29T07:26:20.369Z,1.86
2019-01-29T07:27:20.416Z,1.93
2019-01-29T07:28:20.467Z,1.86
2019-01-29T07:29:20.514Z,1.86
2019-01-29T07:30:20.565Z,1.83
2019-01-29T07:31:20.611Z,1.85
2019-01-29T07:32:20.661Z,1.83
2019-01-29T07:33:20.722Z,1.90
2019-01-29T07:34:20.762Z,1.92
2019-01-29T07:35:20.808Z,1.85
2019-01-29T07:36:21.538Z,1.83
2019-01-29T07:37:22.133Z,1.81
2019-01-29T07:38:20.956Z,1.77
2019-01-29T07:39:21.007Z,1.79
2019-01-29T07:40:21.054Z,1.82
2019-01-29T07:41:21.102Z,1.81
2019-01-29T07:42:21.151Z,1.83
2019-01-29T07:43:21.203Z,1.72
2019-01-29T07:44:21.249Z,1.74
2019-01-29T07:45:21.301Z,1.86
2019-01-29T07:46:21.347Z,1.92
2019-01-29T07:47:21.400Z,1.79
2019-01-29T07:48:21.446Z,1.85
2019-01-29T07:49:21.495Z,1.95
2019-01-29T07:50:21.543Z,2.01
2019-01-29T07:51:21.592Z,2.09
2019-01-29T07:52:21.642Z,2.08
2019-01-29T07:53:21.771Z,2.04
2019-01-29T07:54:21.740Z,2.14
2019-01-29T07:55:21.789Z,2.12
2019-01-29T07:56:21.837Z,2.01
2019-01-29T07:57:21.888Z,2.04
2019-01-29T07:58:21.935Z,2.12
2019-01-29T07:59:32.426Z,2.14
2019-01-29T08:00:22.034Z,2.01
2019-01-29T08:01:22.084Z,2.04
2019-01-29T08:02:22.133Z,1.95
2019-01-29T08:03:22.181Z,2.02
2019-01-29T08:04:22.229Z,2.00
2019-01-29T08:05:22.280Z,2.08
2019-01-29T08:06:22.330Z,2.14
2019-01-29T08:07:22.380Z,2.18
2019-01-29T08:08:22.430Z,2.15
2019-01-29T08:09:22.476Z,2.19
2019-01-29T08:10:22.527Z,2.19
2019-01-29T08:11:22.574Z,2.22
2019-01-29T08:12:22.624Z,2.27
2019-01-29T08:13:22.674Z,2.18
2019-01-29T08:14:22.724Z,2.26
2019-01-29T08:15:22.771Z,2.29
2019-01-29T08:16:23.353Z,2.41
2019-01-29T08:17:22.908Z,2.30
2019-01-29T08:18:22.921Z,2.37
2019-01-29T08:19:22.979Z,2.37
2019-01-29T08:20:23.020Z,2.33
2019-01-29T08:21:23.069Z,2.36
2019-01-29T08:22:23.119Z,2.36
2019-01-29T08:23:23.168Z,2.41
2019-01-29T08:24:23.219Z,2.47
2019-01-29T08:25:23.266Z,2.55
2019-01-29T08:26:23.319Z,2.50
2019-01-29T08:27:23.366Z,2.55
2019-01-29T08:28:23.417Z,2.74
2019-01-29T08:29:23.466Z,2.71
2019-01-29T08:30:23.518Z,2.73
2019-01-29T08:31:23.564Z,2.73
2019-01-29T08:32:24.217Z,2.47
2019-01-29T08:33:23.680Z,2.40
2019-01-29T08:34:23.715Z,2.47
2019-01-29T08:35:23.765Z,2.58
2019-01-29T08:36:23.815Z,2.58
2019-01-29T08:37:23.865Z,2.59
2019-01-29T08:38:23.915Z,2.65
2019-01-29T08:39:23.964Z,2.63
2019-01-29T08:40:24.017Z,2.74
2019-01-29T08:41:24.064Z,2.63
2019-01-29T08:42:24.114Z,2.69
2019-01-29T08:43:24.164Z,2.76
2019-01-29T08:44:24.214Z,2.87
2019-01-29T08:45:24.277Z,2.86
2019-01-29T08:46:24.315Z,2.89
2019-01-29T08:47:24.365Z,3.05
2019-01-29T08:48:24.413Z,3.08
2019-01-29T08:49:24.464Z,3.08
2019-01-29T08:50:24.514Z,3.17
2019-01-29T08:51:24.565Z,3.19
2019-01-29T08:52:24.616Z,3.10
2019-01-29T08:53:24.727Z,3.13
2019-01-29T08:54:24.718Z,3.20
2019-01-29T08:55:25.119Z,3.20
2019-01-29T08:56:24.817Z,3.22
2019-01-29T08:57:24.867Z,3.26
2019-01-29T08:58:27.120Z,3.25
2019-01-29T08:59:24.966Z,3.28
2019-01-29T09:00:25.017Z,3.23
2019-01-29T09:01:25.072Z,3.28
2019-01-29T09:02:25.119Z,3.19
2019-01-29T09:03:25.168Z,3.22
2019-01-29T09:04:25.219Z,3.23
2019-01-29T09:05:25.270Z,3.17
2019-01-29T09:06:25.321Z,3.25
2019-01-29T09:07:25.372Z,3.41
2019-01-29T09:08:25.421Z,3.44
2019-01-29T09:09:25.472Z,3.53
2019-01-29T09:10:25.525Z,3.49
2019-01-29T09:11:25.574Z,3.53
2019-01-29T09:12:25.624Z,3.56
2019-01-29T09:13:25.739Z,3.60
2019-01-29T09:14:25.727Z,3.68
2019-01-29T09:15:25.777Z,3.64
2019-01-29T09:16:25.831Z,3.56
2019-01-29T09:17:25.878Z,3.56
2019-01-29T09:18:25.929Z,3.62
2019-01-29T09:19:25.979Z,3.72
2019-01-29T09:20:26.031Z,3.70
2019-01-29T09:21:26.082Z,3.71
2019-01-29T09:22:26.146Z,3.72
2019-01-29T09:23:26.183Z,3.81
2019-01-29T09:24:26.235Z,3.71
2019-01-29T09:25:26.286Z,3.72
2019-01-29T09:26:26.336Z,3.72
2019-01-29T09:27:26.387Z,3.84
2019-01-29T09:28:26.438Z,3.75
2019-01-29T09:29:26.490Z,3.68
2019-01-29T09:30:26.541Z,3.77
2019-01-29T09:31:26.597Z,3.90
2019-01-29T09:32:26.644Z,3.96
2019-01-29T09:33:26.700Z,3.90
2019-01-29T09:34:26.746Z,3.92
2019-01-29T09:35:26.796Z,3.98
2019-01-29T09:36:26.846Z,4.04
2019-01-29T09:37:26.902Z,3.98
2019-01-29T09:38:26.950Z,4.04
2019-01-29T09:39:27.004Z,3.99
2019-01-29T09:40:27.053Z,4.04
2019-01-29T09:41:27.104Z,4.14
2019-01-29T09:42:27.155Z,4.11
2019-01-29T09:43:27.206Z,4.18
2019-01-29T09:44:27.256Z,4.26
2019-01-29T09:45:27.308Z,4.25
2019-01-29T09:46:27.360Z,4.29
2019-01-29T09:47:27.411Z,4.43
2019-01-29T09:48:27.463Z,4.47
2019-01-29T09:49:27.520Z,4.29
2019-01-29T09:50:27.569Z,4.43
2019-01-29T09:51:27.616Z,4.43
2019-01-29T09:52:27.669Z,4.31
2019-01-29T09:53:27.720Z,4.24
2019-01-29T09:54:27.773Z,4.29
2019-01-29T09:55:29.246Z,4.31
2019-01-29T09:56:27.879Z,4.25
2019-01-29T09:57:27.928Z,4.38
2019-01-29T09:58:27.979Z,4.43
2019-01-29T09:59:28.031Z,4.50
2019-01-29T10:00:28.086Z,4.44
2019-01-29T10:01:28.134Z,4.49
2019-01-29T10:02:28.188Z,4.49
2019-01-29T10:03:28.238Z,4.54
2019-01-29T10:04:28.291Z,4.65
2019-01-29T10:05:28.342Z,4.65
2019-01-29T10:06:28.394Z,4.69
2019-01-29T10:07:29.225Z,4.71
2019-01-29T10:08:28.499Z,4.86
2019-01-29T10:09:28.616Z,4.72
2019-01-29T10:10:28.610Z,4.86
2019-01-29T10:11:28.682Z,4.80
2019-01-29T10:12:28.707Z,4.77
2019-01-29T10:13:28.759Z,4.80
2019-01-29T10:14:28.811Z,4.80
2019-01-29T10:15:28.862Z,4.74
2019-01-29T10:16:28.915Z,4.83
2019-01-29T10:17:28.967Z,4.80
2019-01-29T10:18:29.072Z,4.84
2019-01-29T10:19:29.071Z,4.94
2019-01-29T10:20:29.124Z,4.93
2019-01-29T10:21:29.177Z,4.90
2019-01-29T10:22:29.230Z,5.04
2019-01-29T10:23:29.283Z,5.02
2019-01-29T10:24:29.335Z,5.05
2019-01-29T10:25:37.102Z,5.06
2019-01-29T10:26:29.441Z,5.19
2019-01-29T10:27:29.493Z,5.15
2019-01-29T10:28:29.545Z,5.04
2019-01-29T10:29:29.600Z,5.08
2019-01-29T10:30:29.653Z,4.97
2019-01-29T10:31:29.809Z,5.04
2019-01-29T10:32:29.756Z,5.05
2019-01-29T10:33:29.810Z,4.97
2019-01-29T10:34:29.863Z,4.90
2019-01-29T10:35:30.328Z,4.79
2019-01-29T10:36:29.967Z,4.83
2019-01-29T10:37:30.023Z,4.71
2019-01-29T10:38:30.073Z,4.84
2019-01-29T10:39:30.125Z,4.87
2019-01-29T10:40:30.178Z,4.90
2019-01-29T10:41:30.230Z,4.91
2019-01-29T10:42:30.286Z,4.77
2019-01-29T10:43:30.335Z,4.77
2019-01-29T10:44:30.389Z,4.71
2019-01-29T10:45:30.444Z,4.59
2019-01-29T10:46:30.496Z,4.68
2019-01-29T10:47:30.545Z,4.67
2019-01-29T10:48:30.599Z,4.80
2019-01-29T10:49:30.652Z,4.87
2019-01-29T10:50:30.703Z,4.86
2019-01-29T10:51:30.756Z,4.72
2019-01-29T10:52:30.814Z,4.79
2019-01-29T10:53:30.861Z,4.88
2019-01-29T10:54:30.934Z,4.84
2019-01-29T10:55:30.964Z,4.94
2019-01-29T10:56:31.020Z,4.99
2019-01-29T10:57:31.069Z,4.75
2019-01-29T10:58:31.122Z,4.84
2019-01-29T10:59:31.174Z,4.69
2019-01-29T11:00:31.227Z,4.75
2019-01-29T11:01:31.279Z,4.74
2019-01-29T11:02:31.331Z,4.71
2019-01-29T11:03:31.383Z,4.75
2019-01-29T11:04:31.435Z,4.74
2019-01-29T11:05:31.602Z,4.80
2019-01-29T11:06:31.546Z,4.94
2019-01-29T11:07:31.591Z,4.99
2019-01-29T11:08:31.644Z,5.02
2019-01-29T11:09:31.696Z,4.97
2019-01-29T11:10:32.353Z,4.86
2019-01-29T11:11:31.800Z,4.88
2019-01-29T11:12:31.852Z,4.93
2019-01-29T11:13:31.904Z,5.04
2019-01-29T11:14:31.956Z,5.09
2019-01-29T11:15:32.239Z,4.99
2019-01-29T11:16:32.060Z,5.06
2019-01-29T11:17:32.112Z,5.15
2019-01-29T11:18:32.167Z,5.22
2019-01-29T11:19:32.214Z,5.33
2019-01-29T11:20:32.269Z,5.48
2019-01-29T11:21:32.319Z,5.63
2019-01-29T11:22:32.372Z,5.70
2019-01-29T11:23:32.424Z,5.58
2019-01-29T11:24:32.476Z,5.52
2019-01-29T11:25:32.528Z,5.59
2019-01-29T11:26:32.580Z,5.60
2019-01-29T11:27:32.634Z,5.62
2019-01-29T11:28:32.684Z,5.63
2019-01-29T11:29:32.737Z,5.60
2019-01-29T11:30:32.797Z,5.58
2019-01-29T11:31:32.844Z,5.60
2019-01-29T11:32:32.909Z,5.49
2019-01-29T11:33:32.948Z,5.40
2019-01-29T11:34:33.001Z,5.47
2019-01-29T11:35:33.051Z,5.45
2019-01-29T11:36:33.106Z,5.33
2019-01-29T11:37:33.158Z,5.35
2019-01-29T11:38:33.216Z,5.32
2019-01-29T11:39:33.266Z,5.33
2019-01-29T11:40:33.316Z,5.17
2019-01-29T11:41:33.368Z,5.11
2019-01-29T11:42:33.421Z,5.15
2019-01-29T11:43:33.475Z,5.08
2019-01-29T11:44:33.526Z,5.01
2019-01-29T11:45:33.579Z,5.02
2019-01-29T11:46:33.633Z,5.17
2019-01-29T11:47:33.685Z,5.35
2019-01-29T11:48:33.738Z,5.33
2019-01-29T11:49:33.790Z,5.38
2019-01-29T11:50:33.844Z,5.15
2019-01-29T11:51:33.896Z,5.14
2019-01-29T11:52:33.949Z,5.06
2019-01-29T11:53:34.001Z,4.90
2019-01-29T11:54:34.055Z,4.87
2019-01-29T11:55:34.114Z,5.08
2019-01-29T11:56:34.159Z,4.97
2019-01-29T11:57:34.213Z,5.04
2019-01-29T11:58:34.266Z,4.88
2019-01-29T11:59:34.316Z,4.88
2019-01-29T12:00:34.370Z,4.90
2019-01-29T12:01:34.423Z,4.94
2019-01-29T12:02:34.475Z,4.90
2019-01-29T12:03:34.526Z,4.94
2019-01-29T12:04:34.579Z,4.86
2019-01-29T12:05:35.206Z,4.84
2019-01-29T12:06:35.207Z,4.91
2019-01-29T12:07:34.750Z,5.02
2019-01-29T12:08:34.788Z,6.40
2019-01-29T12:09:34.840Z,5.95
2019-01-29T12:10:34.892Z,5.49
2019-01-29T12:11:34.945Z,5.37
2019-01-29T12:12:34.998Z,5.11
2019-01-29T12:13:35.050Z,5.11
2019-01-29T12:14:35.105Z,5.04
2019-01-29T12:15:35.904Z,4.91
2019-01-29T12:16:35.207Z,4.88
2019-01-29T12:17:35.260Z,4.84
2019-01-29T12:18:35.312Z,4.80
2019-01-29T12:19:35.364Z,4.72
2019-01-29T12:20:35.416Z,4.74
2019-01-29T12:21:35.469Z,4.74
2019-01-29T12:22:35.919Z,4.84
2019-01-29T12:23:35.572Z,4.67
2019-01-29T12:24:35.625Z,4.69
2019-01-29T12:25:35.678Z,4.74
2019-01-29T12:26:35.730Z,4.96
2019-01-29T12:27:36.162Z,5.51
2019-01-29T12:28:35.833Z,5.26
2019-01-29T12:29:35.886Z,5.42
2019-01-29T12:30:35.938Z,5.32
2019-01-29T12:31:35.990Z,5.22
2019-01-29T12:32:36.041Z,4.99
2019-01-29T12:33:36.093Z,4.94
2019-01-29T12:34:36.147Z,4.97
2019-01-29T12:35:36.198Z,4.79
2019-01-29T12:36:36.558Z,4.71
2019-01-29T12:37:36.302Z,4.84
2019-01-29T12:38:36.354Z,4.83
2019-01-29T12:39:36.406Z,5.04
2019-01-29T12:40:37.120Z,5.35
2019-01-29T12:41:36.511Z,6.58
2019-01-29T12:42:36.564Z,7.11
2019-01-29T12:43:36.614Z,6.14
2019-01-29T12:44:36.668Z,5.41
2019-01-29T12:45:36.720Z,5.17
2019-01-29T12:46:36.772Z,5.45
2019-01-29T12:47:36.824Z,5.59
2019-01-29T12:48:36.876Z,5.75
2019-01-29T12:49:36.929Z,5.74
2019-01-29T12:50:36.982Z,5.70
2019-01-29T12:51:37.033Z,5.49
2019-01-29T12:52:37.086Z,5.19
2019-01-29T12:53:37.140Z,5.11
2019-01-29T12:54:37.190Z,5.02
2019-01-29T12:55:37.244Z,4.93
2019-01-29T12:56:37.304Z,4.87
2019-01-29T12:57:37.348Z,4.91
2019-01-29T12:58:37.401Z,4.90
2019-01-29T12:59:37.453Z,4.88
2019-01-29T13:00:37.556Z,4.93
2019-01-29T13:01:38.081Z,4.91
2019-01-29T13:02:37.616Z,5.12
2019-01-29T13:03:37.666Z,5.29
2019-01-29T13:04:37.777Z,5.15
2019-01-29T13:05:37.769Z,5.17
2019-01-29T13:06:37.821Z,4.94
2019-01-29T13:07:37.873Z,4.75
2019-01-29T13:08:37.926Z,4.93
2019-01-29T13:09:37.982Z,4.77
2019-01-29T13:10:38.032Z,4.90
2019-01-29T13:11:38.084Z,4.94
2019-01-29T13:12:38.137Z,4.91
2019-01-29T13:13:38.189Z,4.90
2019-01-29T13:14:38.242Z,5.04
2019-01-29T13:15:38.294Z,5.63
2019-01-29T13:16:38.345Z,6.69
2019-01-29T13:17:38.398Z,6.68
2019-01-29T13:18:38.450Z,6.33
2019-01-29T13:19:38.505Z,6.03